createdAt,value
2022-12-15T00:01:49.828Z,16.70
2022-12-15T00:04:34.712Z,17.23
2022-12-15T00:07:19.600Z,16.13
2022-12-15T00:10:04.480Z,14.20
2022-12-15T00:12:49.398Z,15.03
2022-12-15T00:15:34.612Z,15.10
2022-12-15T00:18:24.071Z,14.83
2022-12-15T00:21:09.196Z,15.10
2022-12-15T00:23:54.953Z,15.60
2022-12-15T00:26:39.902Z,15.43
2022-12-15T00:29:25.324Z,14.53
2022-12-15T00:32:10.191Z,14.27
2022-12-15T00:34:55.224Z,13.60
2022-12-15T00:37:39.966Z,14.93
2022-12-15T00:40:07.374Z,14.87
2022-12-15T00:42:34.022Z,14.43
2022-12-15T00:45:01.127Z,14.30
2022-12-15T00:47:27.540Z,14.23
2022-12-15T00:50:12.513Z,14.83
2022-12-15T00:52:57.292Z,13.17
2022-12-15T00:55:42.032Z,13.97
2022-12-15T00:58:26.804Z,14.43
2022-12-15T01:01:11.776Z,13.43
2022-12-15T01:03:56.801Z,14.00
2022-12-15T01:06:42.104Z,12.93
2022-12-15T01:09:29.239Z,13.53
2022-12-15T01:12:14.113Z,12.53
2022-12-15T01:14:59.259Z,12.17
2022-12-15T01:17:44.289Z,13.40
2022-12-15T01:20:32.695Z,13.10
2022-12-15T01:22:59.133Z,12.77
2022-12-15T01:25:26.054Z,12.17
2022-12-15T01:27:52.883Z,13.70
2022-12-15T01:30:24.056Z,13.43
2022-12-15T01:32:51.061Z,12.97
2022-12-15T01:35:17.907Z,13.27
2022-12-15T01:37:44.786Z,13.00
2022-12-15T01:40:35.393Z,13.07
2022-12-15T01:43:01.870Z,13.33
2022-12-15T01:45:31.331Z,13.67
2022-12-15T01:48:06.137Z,13.93
2022-12-15T01:50:37.945Z,13.93
2022-12-15T01:53:04.494Z,13.17
2022-12-15T01:55:32.238Z,12.63
2022-12-15T01:58:06.792Z,12.53
2022-12-15T02:00:34.295Z,13.20
2022-12-15T02:03:02.129Z,12.33
2022-12-15T02:05:31.724Z,12.23
2022-12-15T02:08:00.436Z,13.57
2022-12-15T02:10:37.480Z,12.83
2022-12-15T02:13:09.792Z,12.83
2022-12-15T02:15:42.232Z,11.90
2022-12-15T02:18:51.322Z,12.83
2022-12-15T02:21:35.265Z,12.87
2022-12-15T02:24:49.682Z,12.47
2022-12-15T02:27:16.319Z,12.47
2022-12-15T02:30:13.644Z,11.83
2022-12-15T02:32:50.118Z,12.13
2022-12-15T02:35:55.175Z,12.40
2022-12-15T02:38:34.478Z,12.60
2022-12-15T02:41:02.963Z,11.63
2022-12-15T02:43:33.521Z,12.13
2022-12-15T02:46:15.419Z,12.33
2022-12-15T02:48:48.754Z,12.67
2022-12-15T02:51:27.645Z,11.80
2022-12-15T02:54:03.944Z,11.13
2022-12-15T02:57:12.096Z,12.27
2022-12-15T02:59:55.473Z,10.87
2022-12-15T03:02:26.503Z,11.53
2022-12-15T03:04:53.903Z,11.90
2022-12-15T03:07:23.408Z,11.37
2022-12-15T03:09:49.896Z,12.80
2022-12-15T03:12:16.446Z,14.33
2022-12-15T03:14:42.871Z,12.87
2022-12-15T03:17:09.430Z,13.23
2022-12-15T03:19:36.058Z,13.40
2022-12-15T03:22:02.633Z,12.93
2022-12-15T03:24:29.047Z,13.43
2022-12-15T03:26:55.854Z,13.17
2022-12-15T03:29:22.302Z,13.00
2022-12-15T03:31:49.919Z,13.90
2022-12-15T03:34:17.057Z,13.30
2022-12-15T03:36:43.823Z,13.63
2022-12-15T03:39:10.281Z,13.40
2022-12-15T03:41:36.669Z,13.93
2022-12-15T03:44:03.328Z,13.17
2022-12-15T03:46:29.888Z,13.10
2022-12-15T03:48:56.404Z,13.50
2022-12-15T03:51:22.811Z,13.33
2022-12-15T03:53:49.273Z,12.50
2022-12-15T03:56:16.830Z,12.83
2022-12-15T03:58:43.360Z,12.87
2022-12-15T04:01:11.333Z,11.73
2022-12-15T04:03:37.951Z,12.23
2022-12-15T04:06:04.756Z,12.17
2022-12-15T04:08:31.228Z,13.30
2022-12-15T04:11:00.006Z,12.70
2022-12-15T04:13:26.383Z,12.43
2022-12-15T04:15:52.861Z,12.90
2022-12-15T04:18:20.263Z,13.40
2022-12-15T04:20:46.782Z,11.37
2022-12-15T04:23:16.656Z,12.47
2022-12-15T04:26:01.672Z,13.07
2022-12-15T04:28:46.651Z,11.43
2022-12-15T04:31:51.366Z,12.07
2022-12-15T04:34:42.393Z,11.97
2022-12-15T04:37:30.477Z,11.60
2022-12-15T04:40:16.014Z,11.53
2022-12-15T04:43:04.406Z,10.70
2022-12-15T04:45:49.392Z,11.87
2022-12-15T04:48:34.695Z,12.27
2022-12-15T04:51:20.046Z,11.37
2022-12-15T04:54:05.260Z,10.90
2022-12-15T04:56:50.289Z,12.00
2022-12-15T04:59:35.969Z,11.60
2022-12-15T05:02:21.257Z,12.67
2022-12-15T05:05:06.259Z,11.70
2022-12-15T05:07:51.295Z,11.60
2022-12-15T05:10:36.061Z,11.53
2022-12-15T05:13:27.741Z,11.13
2022-12-15T05:16:12.891Z,12.33
2022-12-15T05:18:58.070Z,10.90
2022-12-15T05:21:42.839Z,11.70
2022-12-15T05:24:27.707Z,11.87
2022-12-15T05:27:12.566Z,11.10
2022-12-15T05:29:57.386Z,11.00
2022-12-15T05:32:23.903Z,12.07
2022-12-15T05:34:50.320Z,11.43
2022-12-15T05:37:16.674Z,11.60
2022-12-15T05:39:43.212Z,12.43
2022-12-15T05:42:09.644Z,11.27
2022-12-15T05:44:36.088Z,11.33
2022-12-15T05:47:02.706Z,11.80
2022-12-15T05:49:29.080Z,14.80
2022-12-15T05:51:57.355Z,12.73
2022-12-15T05:54:23.809Z,12.30
2022-12-15T05:56:50.687Z,11.97
2022-12-15T05:59:17.734Z,11.83
2022-12-15T06:01:44.325Z,11.77
2022-12-15T06:04:14.752Z,11.77
2022-12-15T06:06:41.963Z,11.00
2022-12-15T06:09:08.774Z,12.77
2022-12-15T06:11:35.264Z,12.07
2022-12-15T06:14:02.603Z,12.80
2022-12-15T06:16:29.257Z,12.70
2022-12-15T06:19:00.687Z,13.37
2022-12-15T06:21:29.848Z,18.38
2022-12-15T06:23:57.140Z,17.20
2022-12-15T06:26:28.176Z,16.33
2022-12-15T06:28:56.902Z,17.40
2022-12-15T06:31:25.430Z,14.97
2022-12-15T06:33:57.661Z,15.53
2022-12-15T06:36:26.346Z,14.43
2022-12-15T06:38:52.818Z,12.43
2022-12-15T06:41:21.341Z,13.43
2022-12-15T06:43:52.478Z,12.67
2022-12-15T06:46:19.280Z,14.20
2022-12-15T06:48:46.654Z,12.87
2022-12-15T06:51:17.443Z,13.27
2022-12-15T06:53:54.288Z,12.57
2022-12-15T06:56:32.473Z,13.03
2022-12-15T06:59:01.068Z,13.90
2022-12-15T07:01:27.920Z,14.23
2022-12-15T07:03:55.307Z,12.40
2022-12-15T07:06:22.599Z,13.43
2022-12-15T07:08:52.421Z,14.27
2022-12-15T07:11:20.901Z,13.23
2022-12-15T07:13:52.101Z,13.33
2022-12-15T07:16:18.720Z,14.37
2022-12-15T07:18:45.303Z,13.77
2022-12-15T07:21:12.150Z,13.90
2022-12-15T07:23:56.347Z,14.33
2022-12-15T07:26:24.353Z,15.77
2022-12-15T07:28:51.085Z,15.87
2022-12-15T07:31:17.771Z,15.33
2022-12-15T07:33:44.487Z,16.23
2022-12-15T07:36:11.133Z,18.00
2022-12-15T07:38:37.514Z,17.57
2022-12-15T07:41:06.806Z,20.80
2022-12-15T07:43:33.847Z,21.80
2022-12-15T07:46:00.778Z,20.63
2022-12-15T07:48:27.754Z,22.23
2022-12-15T07:51:02.781Z,22.30
2022-12-15T07:53:33.896Z,21.10
2022-12-15T07:56:09.637Z,22.03
2022-12-15T07:58:37.992Z,21.37
2022-12-15T08:01:07.284Z,19.87
2022-12-15T08:03:34.834Z,22.30
2022-12-15T08:06:10.395Z,23.30
2022-12-15T08:08:37.135Z,21.87
2022-12-15T08:11:13.437Z,23.07
2022-12-15T08:16:28.148Z,23.47
2022-12-15T08:18:57.022Z,21.93
2022-12-15T08:21:23.562Z,23.10
2022-12-15T08:23:50.593Z,22.83
2022-12-15T08:26:18.687Z,23.77
2022-12-15T08:28:45.768Z,25.00
2022-12-15T08:31:16.638Z,24.43
2022-12-15T08:33:43.757Z,25.30
2022-12-15T08:36:12.882Z,24.63
2022-12-15T08:38:40.979Z,24.50
2022-12-15T08:41:13.178Z,23.97
2022-12-15T08:43:47.703Z,23.00
2022-12-15T08:46:20.913Z,24.27
2022-12-15T08:48:48.088Z,24.00
2022-12-15T08:51:15.006Z,23.20
2022-12-15T08:53:42.298Z,21.90
2022-12-15T08:56:12.160Z,22.93
2022-12-15T08:58:39.584Z,24.23
2022-12-15T09:01:17.319Z,23.30
2022-12-15T09:03:47.277Z,22.57
2022-12-15T09:06:23.548Z,24.50
2022-12-15T09:08:50.493Z,23.57
2022-12-15T09:11:17.591Z,23.43
2022-12-15T09:13:44.377Z,23.73
2022-12-15T09:16:14.563Z,25.83
2022-12-15T09:18:46.588Z,25.80
2022-12-15T09:21:14.470Z,24.70
2022-12-15T09:23:41.460Z,23.77
2022-12-15T09:26:14.274Z,24.30
2022-12-15T09:28:42.858Z,25.57
2022-12-15T09:31:20.705Z,27.03
2022-12-15T09:33:47.548Z,25.13
2022-12-15T09:36:14.456Z,24.30
2022-12-15T09:38:42.759Z,24.57
2022-12-15T09:41:15.408Z,25.67
2022-12-15T09:44:03.064Z,26.30
2022-12-15T09:46:51.269Z,25.97
2022-12-15T09:49:29.891Z,26.47
2022-12-15T09:52:08.879Z,25.40
2022-12-15T09:54:37.778Z,23.73
2022-12-15T09:57:24.180Z,24.40
2022-12-15T10:00:05.270Z,24.53
2022-12-15T10:02:40.809Z,25.10
2022-12-15T10:05:57.295Z,25.20
2022-12-15T10:08:22.070Z,23.87
2022-12-15T10:10:58.540Z,24.07
2022-12-15T10:13:37.575Z,23.03
2022-12-15T10:16:14.236Z,23.73
2022-12-15T10:19:01.884Z,22.13
2022-12-15T10:21:31.616Z,23.17
2022-12-15T10:24:44.364Z,22.20
2022-12-15T10:27:43.879Z,21.23
2022-12-15T10:30:14.009Z,21.33
2022-12-15T10:33:02.844Z,22.17
2022-12-15T10:35:32.984Z,21.47
2022-12-15T10:38:23.251Z,21.27
2022-12-15T10:40:53.469Z,20.70
2022-12-15T10:43:38.186Z,22.50
2022-12-15T10:46:18.407Z,20.67
2022-12-15T10:49:10.911Z,21.70
2022-12-15T10:51:43.595Z,20.37
2022-12-15T10:54:09.973Z,21.90
2022-12-15T10:56:47.524Z,20.97
2022-12-15T10:59:38.091Z,21.57
2022-12-15T11:02:29.459Z,21.33
2022-12-15T11:05:04.872Z,21.43
2022-12-15T11:07:41.445Z,22.20
2022-12-15T11:10:26.292Z,23.33
2022-12-15T11:13:15.671Z,22.40
2022-12-15T11:15:53.358Z,21.93
2022-12-15T11:18:41.073Z,20.93
2022-12-15T11:21:12.864Z,20.87
2022-12-15T11:23:50.544Z,20.67
2022-12-15T11:26:51.160Z,20.00
2022-12-15T11:29:27.158Z,17.60
2022-12-15T11:31:56.518Z,20.57
2022-12-15T11:34:32.154Z,20.67
2022-12-15T11:37:16.924Z,19.80
2022-12-15T11:39:57.292Z,20.97
2022-12-15T11:42:42.083Z,19.87
2022-12-15T11:45:37.902Z,21.57
2022-12-15T11:48:20.867Z,19.90
2022-12-15T11:51:02.463Z,19.97
2022-12-15T11:53:47.762Z,21.57
2022-12-15T11:56:24.912Z,20.93
2022-12-15T11:59:06.677Z,20.10
2022-12-15T12:05:12.694Z,20.20
2022-12-15T12:07:49.161Z,19.50
2022-12-15T12:10:30.856Z,18.80
2022-12-15T12:13:26.432Z,19.93
2022-12-15T12:16:17.891Z,21.77
2022-12-15T12:19:02.791Z,21.57
2022-12-15T12:21:40.865Z,20.47
2022-12-15T12:24:36.395Z,21.20
2022-12-15T12:27:26.174Z,20.93
2022-12-15T12:30:00.371Z,19.47
2022-12-15T12:32:50.432Z,19.83
2022-12-15T12:35:32.324Z,20.57
2022-12-15T12:38:03.858Z,20.33
2022-12-15T12:40:40.075Z,20.43
2022-12-15T12:43:15.150Z,19.67
2022-12-15T12:46:06.944Z,21.97
2022-12-15T12:48:38.536Z,21.03
2022-12-15T12:51:24.548Z,19.03
2022-12-15T12:53:51.710Z,21.50
2022-12-15T12:56:40.489Z,20.27
2022-12-15T12:59:28.813Z,21.73
2022-12-15T13:01:57.075Z,21.63
2022-12-15T13:04:29.624Z,22.53
2022-12-15T13:06:55.954Z,21.07
2022-12-15T13:09:25.426Z,20.53
2022-12-15T13:11:51.896Z,22.70
2022-12-15T13:14:31.419Z,22.00
2022-12-15T13:17:28.519Z,21.47
2022-12-15T13:19:58.098Z,21.50
2022-12-15T13:22:31.563Z,21.73
2022-12-15T13:24:58.334Z,22.93
2022-12-15T13:27:36.248Z,22.30
2022-12-15T13:30:05.682Z,21.97
2022-12-15T13:32:44.670Z,22.27
2022-12-15T13:35:11.827Z,22.37
2022-12-15T13:37:48.989Z,22.10
2022-12-15T13:40:37.255Z,23.47
2022-12-15T13:43:03.610Z,21.43
2022-12-15T13:45:55.901Z,20.83
2022-12-15T13:48:34.055Z,23.17
2022-12-15T13:51:25.722Z,22.30
2022-12-15T13:54:16.229Z,23.07
2022-12-15T13:57:01.351Z,21.57
2022-12-15T13:59:40.153Z,23.10
2022-12-15T14:02:25.450Z,21.80
2022-12-15T14:05:19.972Z,21.47
2022-12-15T14:07:58.685Z,23.30
2022-12-15T14:10:41.843Z,21.40
2022-12-15T14:13:16.117Z,21.70
2022-12-15T14:15:47.177Z,21.97
2022-12-15T14:18:39.094Z,22.30
2022-12-15T14:21:07.447Z,21.97
2022-12-15T14:24:03.935Z,22.23
2022-12-15T14:26:31.760Z,23.10
2022-12-15T14:29:03.844Z,23.10
2022-12-15T14:31:31.063Z,24.07
2022-12-15T14:34:07.915Z,23.07
2022-12-15T14:36:35.808Z,23.53
2022-12-15T14:39:06.506Z,21.63
2022-12-15T14:41:40.892Z,21.57
2022-12-15T14:44:36.960Z,20.73
2022-12-15T14:47:08.366Z,21.13
2022-12-15T14:49:45.132Z,20.90
2022-12-15T14:52:30.355Z,20.73
2022-12-15T14:55:00.029Z,20.80
2022-12-15T14:57:43.483Z,21.23
2022-12-15T15:00:25.716Z,21.30
2022-12-15T15:03:12.648Z,20.33
2022-12-15T15:06:02.154Z,21.27
2022-12-15T15:08:32.545Z,22.53
2022-12-15T15:11:04.488Z,21.83
2022-12-15T15:13:40.089Z,20.77
2022-12-15T15:16:13.732Z,20.47
2022-12-15T15:18:42.736Z,20.97
2022-12-15T15:21:17.000Z,21.10
2022-12-15T15:23:58.361Z,21.63
2022-12-15T15:26:26.087Z,21.43
2022-12-15T15:28:52.542Z,21.77
2022-12-15T15:31:41.548Z,21.87
2022-12-15T15:34:09.812Z,20.20
2022-12-15T15:36:39.484Z,20.97
2022-12-15T15:39:15.907Z,20.43
2022-12-15T15:41:42.628Z,21.80
2022-12-15T15:44:13.696Z,22.90
2022-12-15T15:46:58.215Z,21.47
2022-12-15T15:49:24.692Z,21.60
2022-12-15T15:51:51.158Z,21.73
2022-12-15T15:54:22.852Z,20.77
2022-12-15T15:56:49.303Z,22.07
2022-12-15T15:59:18.522Z,21.10
2022-12-15T16:01:48.653Z,21.83
2022-12-15T16:04:15.353Z,23.70
2022-12-15T16:06:46.990Z,23.47
2022-12-15T16:09:15.013Z,23.97
2022-12-15T16:11:41.485Z,22.60
2022-12-15T16:14:12.896Z,24.07
2022-12-15T16:16:39.324Z,23.07
2022-12-15T16:19:05.894Z,22.93
2022-12-15T16:21:32.646Z,21.80
2022-12-15T16:24:07.666Z,21.87
2022-12-15T16:26:37.173Z,22.00
2022-12-15T16:29:14.107Z,21.47
2022-12-15T16:31:45.313Z,20.70
2022-12-15T16:34:12.877Z,22.50
2022-12-15T16:36:40.815Z,21.70
2022-12-15T16:39:36.634Z,20.03
2022-12-15T16:42:04.152Z,20.80
2022-12-15T16:44:30.847Z,21.90
2022-12-15T16:46:57.744Z,22.30
2022-12-15T16:49:24.792Z,24.30
2022-12-15T16:51:53.354Z,22.10
2022-12-15T16:54:25.391Z,23.53
2022-12-15T16:56:53.684Z,21.83
2022-12-15T16:59:33.132Z,21.63
2022-12-15T17:02:01.079Z,24.03
2022-12-15T17:04:27.639Z,23.70
2022-12-15T17:06:54.257Z,23.60
2022-12-15T17:09:25.531Z,23.27
2022-12-15T17:11:52.094Z,21.77
2022-12-15T17:14:18.498Z,23.57
2022-12-15T17:16:46.147Z,23.63
2022-12-15T17:19:17.549Z,23.17
2022-12-15T17:21:53.391Z,23.43
2022-12-15T17:24:21.685Z,24.53
2022-12-15T17:26:49.196Z,25.10
2022-12-15T17:29:20.206Z,23.20
2022-12-15T17:31:47.000Z,23.10
2022-12-15T17:34:33.431Z,24.00
2022-12-15T17:37:02.592Z,26.90
2022-12-15T17:39:29.987Z,24.47
2022-12-15T17:42:01.523Z,27.07
2022-12-15T17:44:34.487Z,28.37
2022-12-15T17:47:02.263Z,27.57
2022-12-15T17:49:35.138Z,26.60
2022-12-15T17:52:05.296Z,28.07
2022-12-15T17:54:31.827Z,28.73
2022-12-15T17:56:58.589Z,28.10
2022-12-15T17:59:25.094Z,26.53
2022-12-15T18:01:52.029Z,28.43
2022-12-15T18:04:18.525Z,26.40
2022-12-15T18:06:45.226Z,27.40
2022-12-15T18:09:19.903Z,27.70
2022-12-15T18:11:46.997Z,26.37
2022-12-15T18:14:19.564Z,28.00
2022-12-15T18:16:46.462Z,26.83
2022-12-15T18:19:13.329Z,27.57
2022-12-15T18:21:40.026Z,26.97
2022-12-15T18:24:14.004Z,26.00
2022-12-15T18:26:40.488Z,26.87
2022-12-15T18:29:17.443Z,27.33
2022-12-15T18:31:46.511Z,25.70
2022-12-15T18:34:15.763Z,26.90
2022-12-15T18:36:42.955Z,27.47
2022-12-15T18:39:30.145Z,26.70
2022-12-15T18:41:57.382Z,27.70
2022-12-15T18:44:30.860Z,27.83
2022-12-15T18:46:57.725Z,26.83
2022-12-15T18:49:24.442Z,25.50
2022-12-15T18:51:51.327Z,27.30
2022-12-15T18:54:21.181Z,28.23
2022-12-15T18:56:47.738Z,27.90
2022-12-15T18:59:15.904Z,26.60
2022-12-15T19:01:46.111Z,29.57
2022-12-15T19:04:13.138Z,31.27
2022-12-15T19:06:40.887Z,31.53
2022-12-15T19:09:27.685Z,36.38
2022-12-15T19:12:12.901Z,28.97
2022-12-15T19:14:42.775Z,28.17
2022-12-15T19:17:36.744Z,25.23
2022-12-15T19:20:33.186Z,27.10
2022-12-15T19:22:59.961Z,28.00
2022-12-15T19:25:28.570Z,28.10
2022-12-15T19:27:59.302Z,30.23
2022-12-15T19:30:29.362Z,30.27
2022-12-15T19:32:55.776Z,32.57
2022-12-15T19:35:22.475Z,33.83
2022-12-15T19:37:50.088Z,33.03
2022-12-15T19:40:22.609Z,29.20
2022-12-15T19:42:49.669Z,31.17
2022-12-15T19:45:22.503Z,29.70
2022-12-15T19:47:49.068Z,27.53
2022-12-15T19:50:22.515Z,28.50
2022-12-15T19:52:52.365Z,25.60
2022-12-15T19:55:25.823Z,27.00
2022-12-15T19:57:52.511Z,24.93
2022-12-15T20:00:22.021Z,23.73
2022-12-15T20:02:51.453Z,23.30
2022-12-15T20:05:19.738Z,23.90
2022-12-15T20:07:47.130Z,24.63
2022-12-15T20:10:31.944Z,25.33
2022-12-15T20:13:00.138Z,24.87
2022-12-15T20:15:26.619Z,25.20
2022-12-15T20:17:57.010Z,24.23
2022-12-15T20:20:25.888Z,22.67
2022-12-15T20:22:55.193Z,25.33
2022-12-15T20:25:40.657Z,24.50
2022-12-15T20:28:15.374Z,25.67
2022-12-15T20:30:42.009Z,25.40
2022-12-15T20:33:08.509Z,26.57
2022-12-15T20:35:36.595Z,28.37
2022-12-15T20:38:17.228Z,26.00
2022-12-15T20:40:43.805Z,27.57
2022-12-15T20:43:18.207Z,28.57
2022-12-15T20:45:47.393Z,28.40
2022-12-15T20:48:15.084Z,36.83
2022-12-15T20:50:44.649Z,29.67
2022-12-15T20:53:22.980Z,29.63
2022-12-15T20:55:50.766Z,27.50
2022-12-15T20:58:17.728Z,28.27
2022-12-15T21:00:45.380Z,28.50
2022-12-15T21:03:19.737Z,29.53
2022-12-15T21:05:47.539Z,27.10
2022-12-15T21:08:25.973Z,31.80
2022-12-15T21:10:54.225Z,28.57
2022-12-15T21:13:27.352Z,27.87
2022-12-15T21:15:54.293Z,29.40
2022-12-15T21:19:11.025Z,29.40
2022-12-15T21:21:16.858Z,28.13
2022-12-15T21:23:43.396Z,28.13
2022-12-15T21:26:10.720Z,27.60
2022-12-15T21:28:37.080Z,28.80
2022-12-15T21:31:03.720Z,29.57
2022-12-15T21:33:30.225Z,27.70
2022-12-15T21:35:56.663Z,29.70
2022-12-15T21:38:31.312Z,29.43
2022-12-15T21:41:00.380Z,27.27
2022-12-15T21:43:29.528Z,30.20
2022-12-15T21:45:56.286Z,27.67
2022-12-15T21:48:41.283Z,28.07
2022-12-15T21:51:13.426Z,27.87
2022-12-15T21:53:40.132Z,29.27
2022-12-15T21:56:06.911Z,27.70
2022-12-15T21:58:35.095Z,27.73
2022-12-15T22:01:01.854Z,26.97
2022-12-15T22:03:28.419Z,26.70
2022-12-15T22:05:54.765Z,26.77
2022-12-15T22:08:22.144Z,30.67
2022-12-15T22:10:50.856Z,30.97
2022-12-15T22:13:20.916Z,31.43
2022-12-15T22:15:50.620Z,26.80
2022-12-15T22:18:22.404Z,28.47
2022-12-15T22:20:50.224Z,27.83
2022-12-15T22:23:18.693Z,27.73
2022-12-15T22:25:47.404Z,30.53
2022-12-15T22:28:33.094Z,27.20
2022-12-15T22:31:02.291Z,27.77
2022-12-15T22:33:28.708Z,23.57
2022-12-15T22:35:56.333Z,25.93
2022-12-15T22:38:23.421Z,25.87
2022-12-15T22:40:55.884Z,25.20
2022-12-15T22:43:41.565Z,23.97
2022-12-15T22:46:12.497Z,24.87
2022-12-15T22:48:41.755Z,25.37
2022-12-15T22:51:12.971Z,23.93
2022-12-15T22:53:39.499Z,25.33
2022-12-15T22:56:20.133Z,25.53
2022-12-15T22:58:48.165Z,24.10
2022-12-15T23:01:14.587Z,24.57
2022-12-15T23:03:41.064Z,25.33
2022-12-15T23:06:07.595Z,24.30
2022-12-15T23:08:33.986Z,24.83
2022-12-15T23:11:19.109Z,23.30
2022-12-15T23:13:45.552Z,25.20
2022-12-15T23:16:21.657Z,24.67
2022-12-15T23:18:53.432Z,23.43
2022-12-15T23:21:23.149Z,25.20
2022-12-15T23:23:49.648Z,25.97
2022-12-15T23:26:18.460Z,25.37
2022-12-15T23:28:45.776Z,24.47
2022-12-15T23:31:12.552Z,26.80
2022-12-15T23:33:39.058Z,25.53
2022-12-15T23:36:06.209Z,25.43
2022-12-15T23:38:32.715Z,23.80
2022-12-15T23:40:59.197Z,25.50
2022-12-15T23:43:27.362Z,24.27
2022-12-15T23:46:06.398Z,25.17
2022-12-15T23:48:38.603Z,25.90
2022-12-15T23:51:14.781Z,25.83
2022-12-15T23:53:42.185Z,25.77
2022-12-15T23:56:14.599Z,25.50
2022-12-15T23:58:43.074Z,25.23
